Home > Products > Valid Products > MTR

000
SAUS45 KGGW 291549
MTRJDN
METAR KJDN 291548Z AUTO 34003KT 16/11 A3006 RMK AO1 SLP176 T01610111





000
SAUS45 KGGW 291449
MTRJDN
METAR KJDN 291448Z AUTO 36011KT 16/12 A3006 RMK AO1 SLP171 T01610117
51008





000
SAUS45 KGGW 291349
MTRJDN
METAR KJDN 291348Z AUTO 33009KT 15/12 A3005 RMK AO1 SLP169 T01500122





000
SAUS45 KGGW 291249
MTRJDN
METAR KJDN 291248Z AUTO 33012KT 14/13 A3005 RMK AO1 SLP163 T01390128





000
SAUS45 KGGW 291149
MTRJDN
METAR KJDN 291148Z AUTO 31011KT 14/13 A3003 RMK AO1 SLP157 60026
70026 T01440133 10206 20139 53011





000
SAUS45 KGGW 291053
MTRJDN
METAR KJDN 291048Z AUTO 30013KT 14/13 A3001 RMK AO1 SLP150
NO CARRIER

RING

NO CARRIER

RING

NO CARRIER

RING

CONNECT 1200

SFOMTRBLU ALL
TTAA00 KBLU 291052
METAR KBLU 291052Z AUTO 36004KT 10SM CLR 20/01 A3018 RMK AO2 SLP111
T02000006





000
SAUS45 KGGW 290949
MTRJDN
METAR KJDN 290948Z AUTO 28004KT 14/13 A2998 RMK AO1 SLP138 P0026
T01440133





000
SAUS45 KGGW 290849
MTRJDN
METAR KJDN 290848Z AUTO 30011KT 16/13 A3000 RMK AO1 SLP143 T01560128
53033





000
SAUS45 KGGW 290749
MTRJDN
METAR KJDN 290748Z AUTO 34009KT 16/13 A2995 RMK AO1 SLP126 T01610128





000
SAUS45 KGGW 290649
MTRJDN
METAR KJDN 290648Z AUTO 01019KT 17/13 A2991 RMK AO1 PK WND
35028/0622 SLP114 T01720133 403110117





000
SAUS45 KGGW 290549
MTRJDN
METAR KJDN 290548Z AUTO 33016G39KT 21/13 A2989 RMK AO1 PK WND
35039/0543 PRESRR SLP105 T02060133 10306 20161 53017





000
SAUS45 KGGW 290449
MTRJDN
METAR KJDN 290448Z AUTO 00000KT 16/14 A2983 RMK AO1 SLP088 T01610139





000
SAUS45 KGGW 290349
MTRJDN
METAR KJDN 290348Z AUTO 17004KT 18/14 A2983 RMK AO1 SLP089 T01830139





000
SAUS45 KGGW 290249
MTRJDN
METAR KJDN 290248Z AUTO 10003KT 21/13 A2984 RMK AO1 SLP090 T02110133
55001





000
SAUS45 KGGW 290149
MTRJDN
METAR KJDN 290148Z AUTO 02006KT 23/13 A2984 RMK AO1 SLP093 T02280133





000
SAUS45 KGGW 290049
MTRJDN
METAR KJDN 290048Z AUTO 34005KT 29/10 A2984 RMK AO1 SLP091 T02890100





000
SAUS45 KGGW 282349
MTRJDN
METAR KJDN 282348Z AUTO 28011KT 30/06 A2984 RMK AO1 SLP091 T03000056
10311 20283 56009





000
SAUS45 KGGW 282249
MTRJDN
METAR KJDN 282248Z AUTO 27015G18KT 31/05 A2985 RMK AO1 SLP092
T03110050





000
SAUS45 KGGW 282149
MTRJDN
METAR KJDN 282148Z AUTO 29007G16KT 31/08 A2986 RMK AO1 SLP098
T03060083





000
SAUS45 KGGW 282049
MTRJDN
METAR KJDN 282048Z AUTO VRB05KT 30/09 A2987 RMK AO1 SLP101 T03000089
58016





000
SAUS45 KGGW 281949
MTRJDN
METAR KJDN 281948Z AUTO 31009KT 30/09 A2989 RMK AO1 SLP108 T03000094





000
SAUS45 KGGW 281849
MTRJDN
METAR KJDN 281848Z AUTO 30007KT 29/11 A2990 RMK AO1 SLP113 T02940106





000
SAUS45 KGGW 281749
MTRJDN
METAR KJDN 281748Z AUTO 27009KT 28/12 A2992 RMK AO1 SLP118 T02830117
10283 20117 58003





000
SAUS45 KGGW 281649
MTRJDN
METAR KJDN 281648Z AUTO 28010KT 27/11 A2992 RMK AO1 SLP120 T02670111





000
SAUS45 KGGW 281549
MTRJDN
METAR KJDN 281548Z AUTO 26008KT 24/12 A2992 RMK AO1 SLP120 T02440122





000
SAUS45 KGGW 281452
MTRJDN
METAR KJDN 281448Z AUTO 27006KT 21/13 A2993 RMK AO1 SLP123 T020
NO CARRIER

RING

CONNECT 1200

BOIMTRSNT ALL
TTAA00 KSNT 281451
METAR KSNT 281451Z AUTO 00000KT 08/04 A3034 RMK AO1 SLP207 T00780039
50003





000
SAUS45 KGGW 281349
MTRJDN
METAR KJDN 281348Z AUTO 00000KT 17/13 A2993 RMK AO1 SLP125 T01670133





000
SAUS45 KGGW 281250
MTRJDN
METAR KJDN 281248Z AUTO 27004KT 13/11 A2994 RMK AO1 SLP126 T01280111





000
SAUS45 KGGW 281149
MTRJDN
METAR KJDN 281148Z AUTO 26004KT 12/11 A2994 RMK AO1 SLP125 T01220111
10150 20122 53002





000
SAUS45 KGGW 281049
MTRJDN
METAR KJDN 281048Z AUTO 27005KT 13/12 A2993 RMK AO1 SLP124 T01280117





000
SAUS45 KGGW 280949
MTRJDN
METAR KJDN 280948Z AUTO 27005KT 12/12 A2994 RMK AO1 SLP125 T01220117





000
SAUS45 KGGW 280849
MTRJDN
METAR KJDN 280848Z AUTO 00000KT 13/12 A2993 RMK AO1 SLP125 T01280117
56005





000
SAUS45 KGGW 280749
MTRJDN
METAR KJDN 280748Z AUTO 30003KT 13/12 A2993 RMK AO1 SLP124 T01330117





000
SAUS45 KGGW 280649
MTRJDN
METAR KJDN 280648Z AUTO 29006KT 14/13 A2994 RMK AO1 SLP126 T01440128
403060094





000
SAUS45 KGGW 280549
MTRJDN
METAR KJDN 280548Z AUTO 29003KT 14/13 A2995 RMK AO1 SLP129 T01440133
10294 20144 58004





000
SAUS45 KGGW 280449
MTRJDN
METAR KJDN 280448Z AUTO 00000KT 16/14 A2996 RMK AO1 SLP133 T01610139





000
SAUS45 KGGW 280349
MTRJDN
METAR KJDN 280348Z AUTO 30004KT 17/13 A2996 RMK AO1 SLP136 T01720133





000
SAUS45 KGGW 280249
MTRJDN
METAR KJDN 280248Z AUTO 00000KT 20/14 A2996 RMK AO1 SLP138 T02000144
53006





000
SAUS45 KGGW 280149
MTRJDN
METAR KJDN 280148Z AUTO 32007KT 23/14 A2994 RMK AO1 SLP133 T02330139





000
SAUS45 KGGW 280049
MTRJDN
METAR KJDN 280048Z AUTO 30005KT 28/11 A2994 RMK AO1 SLP129 T02830111





000
SAUS45 KGGW 272349
MTRJDN
METAR KJDN 272348Z AUTO 29006KT 29/09 A2994 RMK AO1 SLP131 T02940094
10306 20267 56008





000
SAUS45 KGGW 272249
MTRJDN
METAR KJDN 272248Z AUTO 28009KT 30/09 A2995 RMK AO1 SLP129 T03000089





000
SAUS45 KGGW 272149
MTRJDN
METAR KJDN 272148Z AUTO 27010KT 30/11 A2996 RMK AO1 SLP135 T03000106





000
SAUS45 KGGW 272049
MTRJDN
METAR KJDN 272048Z AUTO 29007KT 28/11 A2997 RMK AO1 SLP140 T02830111
56011





000
SAUS45 KGGW 271949
MTRJDN
METAR KJDN 271948Z AUTO 27010KT 29/12 A2998 RMK AO1 SLP142 T02890122





000
SAUS45 KGGW 271849
MTRJDN
METAR KJDN 271848Z AUTO 20009KT 28/12 A2999 RMK AO1 SLP143 T02780117





000
SAUS45 KGGW 271749
MTRJDN
METAR KJDN 271748Z AUTO 24006KT 27/12 A3001 RMK AO1 SLP150 T02720122
10272 20094 58015





000
SAUS45 KGGW 271649
MTRJDN
METAR KJDN 271648Z AUTO 21007KT 26/12 A3002 RMK AO1 SLP159 T02560117





000
SAUS45 KGGW 271551
MTRJDN
METAR KJDN 271548Z AUTO VRB04KT 22/12 A3004 RMK AO1 SLP166 T02220122





000
SAUS45 KGGW 271449
MTRJDN
METAR KJDN 271448Z AUTO 00000KT 18/11 A3005 RMK AO1 SLP172 T01780111
58001





000
SAUS45 KGGW 271349
MTRJDN
METAR KJDN 271348Z AUTO 00000KT 13/11 A3006 RMK AO1 SLP175 T01330111





000
SAUS45 KGGW 271249
MTRJDN
METAR KJDN 271248Z AUTO 00000KT 11/09 A3006 RMK AO1 SLP175 T01060094





000
SAUS45 KGGW 271149
MTRJDN
METAR KJDN 271148Z AUTO 00000KT 09/08 A3006 RMK AO1 SLP173 T00940083
10144 20094 58007





000
SAUS45 KGGW 271049
MTRJDN
METAR KJDN 271048Z AUTO 00000KT 11/09 A3006 RMK AO1 SLP176 T01060094





000
SAUS45 KGGW 270949
MTRJDN
METAR KJDN 270948Z AUTO 00000KT 10/09 A3007 RMK AO1 SLP178 T01000089





000
SAUS45 KGGW 270949
MTRJDN
METAR KJDN 270948Z AUTO 00000KT 10/09 A3007 RMK AO1 SLP178 T01000089





000
SAUS45 KGGW 270849
MTRJDN
METAR KJDN 270848Z AUTO 00000KT 11/09 A3008 RMK AO1 SLP181 T01060094
58003





000
SAUS45 KGGW 270749
MTRJDN
METAR KJDN 270748Z AUTO 00000KT 11/10 A3009 RMK AO1 SLP184 T01110100





000
SAUS45 KGGW 270649
MTRJDN
METAR KJDN 270648Z AUTO 09003KT 14/10 A3009 RMK AO1 SLP184 T01440100
402610061





000
SAUS45 KGGW 270549
MTRJDN
METAR KJDN 270548Z AUTO 00000KT 14/11 A3009 RMK AO1 SLP184 T01390106
10256 20128 50003





000
SAUS45 KGGW 270449
MTRJDN
METAR KJDN 270448Z AUTO 00000KT 13/11 A3009 RMK AO1 SLP187 T01280106





000
SAUS45 KGGW 270349
MTRJDN
METAR KJDN 270348Z AUTO 00000KT 14/12 A3008 RMK AO1 SLP185 T01440117





000
SAUS45 KGGW 270249
MTRJDN
METAR KJDN 270248Z AUTO 00000KT 17/11 A3008 RMK AO1 SLP184 T01670106
53006





000
SAUS45 KGGW 270149
MTRJDN
METAR KJDN 270148Z AUTO 00000KT 20/11 A3006 RMK AO1 SLP180 T02000111





000
SAUS45 KGGW 270049
MTRJDN
METAR KJDN 270048Z AUTO 29004KT 25/06 A3006 RMK AO1 SLP176 T02500056





000
SAUS45 KGGW 262349
MTRJDN
METAR KJDN 262348Z AUTO 25004KT 26/06 A3006 RMK AO1 SLP175 T02560056
10261 20206 56006





000
SAUS45 KGGW 262249
MTRJDN
METAR KJDN 262248Z AUTO 29004KT 25/08 A3006 RMK AO1 SLP177 T02500078





000
SAUS45 KGGW 262149
MTRJDN
METAR KJDN 262148Z AUTO 24007KT 190V280 24/10 A3007 RMK AO1 SLP179
T02440100





000
SAUS45 KGGW 262049
MTRJDN
METAR KJDN 262048Z AUTO 22006KT 24/10 A3008 RMK AO1 SLP183 T02390100
56012





000
SAUS45 KGGW 261949
MTRJDN
METAR KJDN 261948Z AUTO 23009KT 23/11 A3009 RMK AO1 SLP188 T02330106





000
SAUS45 KGGW 261852
MTRJDN
METAR KJDN 261848Z AUTO 20005KT 22/09 A3010 RMK AO1 SLP192 T0217009
NO CARRIER

RING

CONNECT 1200

BOIMTRSNT ALL
TTAA00 KSNT 261851
METAR KSNT 261851Z AUTO 00000KT 14/07 A3028 RMK AO1 SLP194 T01390067





000
SAUS45 KGGW 261749
MTRJDN
METAR KJDN 261748Z AUTO VRB03KT 21/10 A3012 RMK AO1 SLP198 T02060100
10211 20067 50000





000
SAUS45 KGGW 261649
MTRJDN
METAR KJDN 261648Z AUTO 19005KT 19/10 A3012 RMK AO1 SLP200 T01940100





    US Dept of Commerce
    National Oceanic and Atmospheric Administration
    National Weather Service
    1325 East West Highway
    Silver Spring, MD 20910
    Page Author: NWS Internet Services Team
Disclaimer
Information Quality
Credits
Glossary
Privacy Policy
Freedom of Information Act (FOIA)
About Us
Career Opportunities